Terminal Aerodrome Forecast
Issued by NWS

Home | Current Version | Previous Version | Text Only | Print | Product List | Glossary On
Versions: 1 2 3 4 5 6 7 8 9 10 11 12 13 14 15 16 17 18 19 20 21 22
000
FTUS45 KABQ 292300
TAFSAF
TAF
KSAF 292338Z 3000/3024 36008KT P6SM FEW090 SCT200
     FM300200 35008KT P6SM SCT080
     FM301800 30010KT P6SM FEW080
     FM302200 31011KT P6SM VCSH SCT070=

USA.gov is the U.S. government's official web portal to all federal, state and local government web resources and services.